Time;durP1;ratioP1;P1;durP2;ratioP2;P2;SDS_P1;SDS_P2;PMS_P1;PMS_P2;Temp;Humidity;BMP_temperature;BMP_pressure;BME280_temperature;BME280_humidity;BME280_pressure;Samples;Min_cycle;Max_cycle;Signal;HPM_P1;HPM_P2
2023/12/05 00:01:20;;;;;;;3.13;2.10;;;1.00;99.90;;;;;;6210800;23;20060;-72
2023/12/05 00:03:45;;;;;;;9.65;2.53;;;1.00;99.90;;;;;;6212019;23;20016;-74
2023/12/05 00:06:12;;;;;;;3.30;1.33;;;1.00;99.90;;;;;;6184657;23;20072;-72
2023/12/05 00:08:38;;;;;;;0.95;0.85;;;1.00;99.90;;;;;;6185055;23;20297;-72
2023/12/05 00:11:05;;;;;;;1.42;0.75;;;1.00;99.90;;;;;;6185602;23;20471;-73
2023/12/05 00:13:31;;;;;;;1.48;1.27;;;1.00;99.90;;;;;;6185338;23;20333;-72
2023/12/05 00:15:56;;;;;;;2.05;0.95;;;1.00;99.90;;;;;;6212138;23;20016;-74
2023/12/05 00:18:22;;;;;;;0.38;0.35;;;1.00;99.90;;;;;;6185776;23;20071;-73
2023/12/05 00:20:47;;;;;;;2.50;1.73;;;1.00;99.90;;;;;;6185358;23;20247;-73
2023/12/05 00:23:13;;;;;;;2.35;1.60;;;1.00;99.90;;;;;;6185603;23;20383;-73
2023/12/05 00:25:38;;;;;;;2.70;1.85;;;1.00;99.90;;;;;;6180960;23;20506;-72
2023/12/05 00:28:04;;;;;;;1.50;1.08;;;1.00;99.90;;;;;;6183623;23;20380;-72
2023/12/05 00:30:29;;;;;;;0.90;0.65;;;1.00;99.90;;;;;;6183650;23;20423;-72
2023/12/05 00:32:55;;;;;;;1.38;1.27;;;1.00;99.90;;;;;;6211932;23;20297;-72
2023/12/05 00:35:21;;;;;;;1.13;0.50;;;1.00;99.90;;;;;;6183576;23;20088;-72
2023/12/05 00:37:48;;;;;;;1.88;1.17;;;1.00;99.90;;;;;;6185068;23;20016;-72
2023/12/05 00:40:14;;;;;;;2.80;1.85;;;1.00;99.90;;;;;;6185747;23;20012;-76
2023/12/05 00:42:39;;;;;;;5.35;1.23;;;1.00;99.90;;;;;;6213297;23;20070;-74
2023/12/05 00:45:05;;;;;;;2.42;1.13;;;1.00;99.90;;;;;;6211688;23;20017;-72
2023/12/05 00:47:31;;;;;;;1.25;0.90;;;1.00;99.90;;;;;;6186492;23;20031;-73
2023/12/05 00:49:56;;;;;;;0.60;0.60;;;1.00;99.90;;;;;;6183076;23;20483;-74
2023/12/05 00:52:22;;;;;;;1.30;1.17;;;0.90;99.90;;;;;;6185721;23;20005;-73
2023/12/05 00:54:49;;;;;;;2.60;1.17;;;0.90;99.90;;;;;;6185043;23;20012;-74
2023/12/05 00:57:14;;;;;;;2.08;0.93;;;0.90;99.90;;;;;;6186051;23;20123;-74
2023/12/05 00:59:40;;;;;;;0.95;0.93;;;0.90;99.90;;;;;;6184819;23;20052;-76
2023/12/05 01:02:05;;;;;;;1.08;1.00;;;0.90;99.90;;;;;;6186198;23;20024;-74
2023/12/05 01:04:31;;;;;;;1.30;1.20;;;0.90;99.90;;;;;;6185345;23;20028;-72
2023/12/05 01:06:56;;;;;;;2.97;1.65;;;0.80;99.90;;;;;;6212833;23;20490;-70
2023/12/05 01:09:22;;;;;;;0.82;0.82;;;0.80;99.90;;;;;;6185636;23;20065;-69
2023/12/05 01:11:47;;;;;;;0.40;0.40;;;0.80;99.90;;;;;;6186409;23;20013;-69
2023/12/05 01:14:13;;;;;;;5.63;0.75;;;0.80;99.90;;;;;;6211604;23;20340;-67
2023/12/05 01:16:43;;;;;;;0.80;0.65;;;0.80;99.90;;;;;;6185990;23;20012;-69
2023/12/05 01:19:09;;;;;;;1.25;1.15;;;0.80;99.90;;;;;;6184399;23;20396;-68
2023/12/05 01:21:35;;;;;;;2.15;1.95;;;0.80;99.90;;;;;;6187109;23;20038;-68
2023/12/05 01:24:00;;;;;;;2.50;0.80;;;0.80;99.90;;;;;;6181136;23;20027;-68
2023/12/05 01:26:26;;;;;;;1.70;1.60;;;0.80;99.90;;;;;;6186026;23;20021;-68
2023/12/05 01:28:51;;;;;;;1.83;1.15;;;0.70;99.90;;;;;;6211611;23;20015;-69
2023/12/05 01:31:17;;;;;;;2.47;1.90;;;0.80;99.90;;;;;;6186310;23;20015;-67
2023/12/05 01:33:43;;;;;;;0.90;0.88;;;0.70;99.90;;;;;;6212085;23;20093;-68
2023/12/05 01:36:12;;;;;;;0.70;0.70;;;0.70;99.90;;;;;;6185223;23;20025;-69
2023/12/05 01:38:39;;;;;;;1.88;1.52;;;0.70;99.90;;;;;;6184590;23;20082;-67
2023/12/05 01:41:05;;;;;;;2.92;2.05;;;0.70;99.90;;;;;;6185745;23;20091;-67
2023/12/05 01:43:31;;;;;;;2.03;1.83;;;0.70;99.90;;;;;;6209346;23;20020;-67
2023/12/05 01:45:57;;;;;;;3.75;1.95;;;0.70;99.90;;;;;;6184639;23;20336;-67
2023/12/05 01:48:25;;;;;;;1.65;1.20;;;0.70;99.90;;;;;;6209357;23;20012;-69
2023/12/05 01:50:52;;;;;;;0.75;0.60;;;0.70;99.90;;;;;;6212223;23;20051;-68
2023/12/05 01:53:20;;;;;;;2.28;1.73;;;0.70;99.90;;;;;;6158433;23;20013;-68
2023/12/05 01:55:46;;;;;;;1.75;1.35;;;0.70;99.90;;;;;;6184036;23;20084;-68
2023/12/05 01:58:11;;;;;;;1.23;1.08;;;0.70;99.90;;;;;;6183294;23;20055;-69
2023/12/05 02:00:39;;;;;;;0.50;0.50;;;0.70;99.90;;;;;;6211192;23;20052;-70
2023/12/05 02:03:04;;;;;;;1.70;0.82;;;0.70;99.90;;;;;;6182900;23;20388;-70
2023/12/05 02:05:30;;;;;;;4.43;1.35;;;0.70;99.90;;;;;;6183155;23;20016;-70
2023/12/05 02:07:57;;;;;;;1.38;0.70;;;0.70;99.90;;;;;;6183305;23;20021;-68
2023/12/05 02:10:23;;;;;;;2.60;1.73;;;0.70;99.90;;;;;;6210724;23;20009;-70
2023/12/05 02:12:49;;;;;;;0.98;0.98;;;0.70;99.90;;;;;;6184133;23;20060;-67
2023/12/05 02:15:14;;;;;;;0.80;0.80;;;0.70;99.90;;;;;;6183242;23;20504;-70
2023/12/05 02:17:55;;;;;;;0.95;0.85;;;0.70;99.90;;;;;;6211353;23;20099;-69
2023/12/05 02:20:45;;;;;;;1.45;1.10;;;0.70;99.90;;;;;;6209989;23;20031;-71
2023/12/05 02:23:38;;;;;;;2.63;1.58;;;0.70;99.90;;;;;;6184161;23;20017;-68
2023/12/05 02:26:08;;;;;;;1.65;1.23;;;0.70;99.90;;;;;;6182674;23;20051;-69
2023/12/05 02:28:36;;;;;;;1.02;1.02;;;0.70;99.90;;;;;;6181467;23;20066;-69
2023/12/05 02:31:01;;;;;;;1.77;0.90;;;0.70;99.90;;;;;;6185367;23;20321;-68
2023/12/05 02:33:27;;;;;;;3.03;1.75;;;0.70;99.90;;;;;;6184505;23;20016;-69
2023/12/05 02:36:15;;;;;;;1.15;1.05;;;0.70;99.90;;;;;;6184283;23;20102;-71
2023/12/05 02:38:53;;;;;;;0.40;0.40;;;0.70;99.90;;;;;;6182205;23;20013;-70
2023/12/05 02:41:22;;;;;;;0.85;0.85;;;0.70;99.90;;;;;;6160514;23;20017;-69
2023/12/05 02:44:12;;;;;;;3.60;2.05;;;0.70;99.90;;;;;;6209783;23;20008;-70
2023/12/05 02:46:41;;;;;;;0.60;0.32;;;0.70;99.90;;;;;;6185590;23;20066;-70
2023/12/05 02:49:09;;;;;;;1.65;0.88;;;0.70;99.90;;;;;;6182389;23;20019;-71
2023/12/05 02:51:35;;;;;;;1.35;1.30;;;0.70;99.90;;;;;;6184453;23;20087;-69
2023/12/05 02:54:03;;;;;;;3.40;1.60;;;0.70;99.90;;;;;;6182473;23;20440;-71
2023/12/05 02:56:29;;;;;;;1.48;1.30;;;0.70;99.90;;;;;;6185503;23;20020;-70
2023/12/05 02:58:55;;;;;;;1.13;0.85;;;0.70;99.90;;;;;;6182734;23;20024;-69
2023/12/05 03:01:20;;;;;;;1.20;1.20;;;0.80;99.90;;;;;;6184620;23;20070;-71
2023/12/05 03:03:47;;;;;;;1.17;1.08;;;0.80;99.90;;;;;;6181861;23;20101;-69
2023/12/05 03:06:12;;;;;;;3.70;1.77;;;0.80;99.90;;;;;;6184800;23;20021;-71
2023/12/05 03:08:38;;;;;;;2.75;1.27;;;0.70;99.90;;;;;;6184152;23;20381;-69
2023/12/05 03:11:04;;;;;;;0.63;0.57;;;0.80;99.90;;;;;;6186249;23;20012;-69
2023/12/05 03:13:29;;;;;;;3.40;0.98;;;0.80;99.90;;;;;;6212847;23;20004;-71
2023/12/05 03:15:55;;;;;;;2.55;1.55;;;0.80;99.90;;;;;;6185577;23;20378;-70
2023/12/05 03:18:20;;;;;;;3.15;2.65;;;0.80;99.90;;;;;;6186067;23;20479;-71
2023/12/05 03:20:46;;;;;;;0.63;0.60;;;0.80;99.90;;;;;;6186900;23;20039;-71
2023/12/05 03:23:11;;;;;;;2.40;1.75;;;0.80;99.90;;;;;;6212140;23;20013;-72
2023/12/05 03:25:37;;;;;;;1.67;1.58;;;0.80;99.90;;;;;;6185828;23;20466;-72
2023/12/05 03:28:02;;;;;;;0.77;0.77;;;0.80;99.90;;;;;;6185249;23;20432;-71
2023/12/05 03:30:28;;;;;;;2.38;0.93;;;0.80;99.90;;;;;;6186869;23;20487;-72
2023/12/05 03:32:53;;;;;;;0.93;0.93;;;0.80;99.90;;;;;;6185098;23;20339;-71
2023/12/05 03:35:19;;;;;;;2.53;1.23;;;0.80;99.90;;;;;;6185651;23;20490;-69
2023/12/05 03:37:44;;;;;;;3.17;1.90;;;0.80;99.90;;;;;;6187642;23;20229;-70
2023/12/05 03:40:10;;;;;;;2.33;1.55;;;0.80;99.90;;;;;;6186143;23;20456;-71
2023/12/05 03:42:36;;;;;;;1.80;1.65;;;0.80;99.90;;;;;;6212858;23;20024;-70
2023/12/05 03:45:04;;;;;;;1.08;1.08;;;0.80;99.90;;;;;;6185150;23;20025;-67
2023/12/05 03:47:29;;;;;;;0.65;0.65;;;0.80;99.90;;;;;;6187535;23;20008;-71
2023/12/05 03:49:55;;;;;;;3.47;1.63;;;0.80;99.90;;;;;;6212757;23;20008;-73
2023/12/05 03:52:20;;;;;;;1.27;1.23;;;0.80;99.90;;;;;;6213575;23;20040;-70
2023/12/05 03:54:46;;;;;;;2.53;1.60;;;0.80;99.90;;;;;;6184733;23;20020;-72
2023/12/05 03:57:11;;;;;;;3.75;1.88;;;0.80;99.90;;;;;;6187553;23;20099;-71
2023/12/05 03:59:37;;;;;;;3.92;2.20;;;0.80;99.90;;;;;;6185156;23;20031;-72
2023/12/05 04:02:03;;;;;;;3.00;1.17;;;0.90;99.90;;;;;;6213057;23;20443;-71
2023/12/05 04:04:28;;;;;;;2.45;1.85;;;0.80;99.90;;;;;;6184546;23;20399;-71
2023/12/05 04:06:54;;;;;;;1.08;1.02;;;0.80;99.90;;;;;;6212845;23;20009;-71
2023/12/05 04:09:19;;;;;;;4.05;2.75;;;0.90;99.90;;;;;;6185406;23;20091;-74
2023/12/05 04:11:45;;;;;;;4.38;0.82;;;0.80;99.90;;;;;;6212355;23;20630;-70
2023/12/05 04:14:10;;;;;;;3.20;2.47;;;0.80;99.90;;;;;;6184659;23;20467;-70
2023/12/05 04:16:36;;;;;;;2.35;1.75;;;0.80;99.90;;;;;;6185266;23;20021;-73
2023/12/05 04:19:01;;;;;;;2.47;1.75;;;0.90;99.90;;;;;;6212045;23;20071;-71
2023/12/05 04:21:27;;;;;;;2.17;1.98;;;0.80;99.90;;;;;;6187054;23;20016;-73
2023/12/05 04:23:53;;;;;;;1.70;1.45;;;0.90;99.90;;;;;;6211455;23;20040;-69
2023/12/05 04:26:20;;;;;;;6.38;1.70;;;0.90;99.90;;;;;;6187321;23;20016;-71
2023/12/05 04:28:47;;;;;;;2.67;1.17;;;0.90;99.90;;;;;;6185944;23;20123;-70
2023/12/05 04:31:13;;;;;;;1.02;1.00;;;0.90;99.90;;;;;;6161607;23;20487;-70
2023/12/05 04:33:41;;;;;;;0.75;0.75;;;0.90;99.90;;;;;;6211581;23;20020;-71
2023/12/05 04:36:07;;;;;;;1.13;1.13;;;0.90;99.90;;;;;;6186915;23;20868;-71
2023/12/05 04:38:35;;;;;;;1.58;1.48;;;0.90;99.90;;;;;;6185101;23;20047;-68
2023/12/05 04:41:01;;;;;;;4.25;1.77;;;0.90;99.90;;;;;;6186904;23;20016;-71
2023/12/05 04:43:26;;;;;;;1.50;1.00;;;0.90;99.90;;;;;;6211658;23;20031;-71
2023/12/05 04:45:52;;;;;;;2.72;1.13;;;0.90;99.90;;;;;;6186293;23;20348;-70
2023/12/05 04:48:17;;;;;;;1.63;1.52;;;0.90;99.90;;;;;;6184723;23;20008;-71
2023/12/05 04:50:43;;;;;;;1.58;1.48;;;0.90;99.90;;;;;;6186266;23;20067;-72
2023/12/05 04:53:09;;;;;;;2.60;2.20;;;0.90;99.90;;;;;;6212599;23;20035;-70
2023/12/05 04:55:35;;;;;;;5.45;3.00;;;0.90;99.90;;;;;;6186992;23;20017;-71
2023/12/05 04:58:00;;;;;;;1.10;1.00;;;0.90;99.90;;;;;;6185228;23;20344;-70
2023/12/05 05:00:27;;;;;;;2.65;0.88;;;0.90;99.90;;;;;;6186240;23;20016;-72
2023/12/05 05:02:52;;;;;;;2.58;2.33;;;0.90;99.90;;;;;;6185003;23;20036;-69
2023/12/05 05:05:18;;;;;;;1.20;0.93;;;0.90;99.90;;;;;;6186499;23;20025;-70
2023/12/05 05:07:43;;;;;;;1.52;1.42;;;0.90;99.90;;;;;;6213228;23;20013;-70
2023/12/05 05:10:09;;;;;;;2.53;1.23;;;0.90;99.90;;;;;;6213922;23;20063;-71
2023/12/05 05:12:35;;;;;;;1.25;1.15;;;0.90;99.90;;;;;;6212711;23;20008;-70
2023/12/05 05:15:00;;;;;;;2.10;1.52;;;0.90;99.90;;;;;;6156819;23;20342;-70
2023/12/05 05:17:26;;;;;;;3.00;1.90;;;0.90;99.90;;;;;;6211943;23;20054;-71
2023/12/05 05:19:51;;;;;;;2.17;1.02;;;0.90;99.90;;;;;;6185181;23;20021;-69
2023/12/05 05:22:17;;;;;;;4.70;1.80;;;0.90;99.90;;;;;;6186066;23;20444;-69
2023/12/05 05:24:42;;;;;;;5.28;2.10;;;0.90;99.90;;;;;;6211663;23;20017;-71
2023/12/05 05:27:08;;;;;;;2.95;1.20;;;0.90;99.90;;;;;;6212208;23;20075;-69
2023/12/05 05:29:34;;;;;;;2.03;1.02;;;0.90;99.90;;;;;;6211922;23;20011;-71
2023/12/05 05:31:59;;;;;;;1.13;1.10;;;0.90;99.90;;;;;;6186628;23;20097;-71
2023/12/05 05:34:25;;;;;;;4.38;1.70;;;0.90;99.90;;;;;;6211298;23;20008;-71
2023/12/05 05:36:50;;;;;;;1.77;0.98;;;0.90;99.90;;;;;;6186227;23;20009;-70
2023/12/05 05:39:16;;;;;;;3.28;1.77;;;0.90;99.90;;;;;;6211477;23;20139;-71
2023/12/05 05:41:42;;;;;;;2.58;2.38;;;0.90;99.90;;;;;;6212941;23;20009;-70
2023/12/05 05:44:07;;;;;;;2.15;0.98;;;0.90;99.90;;;;;;6183160;23;20452;-70
2023/12/05 05:46:33;;;;;;;2.83;1.77;;;0.90;99.90;;;;;;6183697;23;20052;-70
2023/12/05 05:48:58;;;;;;;2.00;1.15;;;0.90;99.90;;;;;;6184876;23;20017;-70
2023/12/05 05:51:24;;;;;;;10.38;3.20;;;0.90;99.90;;;;;;6185236;23;20024;-69
2023/12/05 05:53:50;;;;;;;1.65;1.55;;;0.90;99.90;;;;;;6184111;23;20015;-71
2023/12/05 05:56:16;;;;;;;2.55;1.80;;;0.90;99.90;;;;;;6212093;23;20055;-71
2023/12/05 05:58:41;;;;;;;2.42;1.63;;;0.90;99.90;;;;;;6185138;23;20095;-71
2023/12/05 06:01:07;;;;;;;1.67;1.58;;;0.90;99.90;;;;;;6186032;23;20023;-71
2023/12/05 06:03:33;;;;;;;1.42;1.33;;;0.90;99.90;;;;;;6184408;23;20012;-71
2023/12/05 06:05:58;;;;;;;2.40;1.45;;;0.90;99.90;;;;;;6184843;23;20020;-71
2023/12/05 06:08:24;;;;;;;1.95;1.48;;;0.90;99.90;;;;;;6184882;23;20009;-72
2023/12/05 06:10:50;;;;;;;6.22;2.00;;;0.90;99.90;;;;;;6185847;23;20015;-71
2023/12/05 06:13:15;;;;;;;8.02;1.52;;;0.90;99.90;;;;;;6183677;23;20066;-72
2023/12/05 06:15:41;;;;;;;2.83;1.13;;;0.90;99.90;;;;;;6183537;23;20021;-72
2023/12/05 06:18:07;;;;;;;2.13;1.95;;;0.90;99.90;;;;;;6184459;23;20048;-71
2023/12/05 06:20:32;;;;;;;2.85;2.47;;;0.90;99.90;;;;;;6185835;23;20017;-72
2023/12/05 06:22:58;;;;;;;2.13;1.27;;;0.90;99.90;;;;;;6184361;23;20103;-71
2023/12/05 06:25:23;;;;;;;3.45;2.00;;;0.90;99.90;;;;;;6183302;23;20336;-72
2023/12/05 06:27:50;;;;;;;3.92;2.03;;;0.90;99.90;;;;;;6183370;23;20491;-71
2023/12/05 06:30:15;;;;;;;4.47;2.20;;;0.90;99.90;;;;;;6185854;23;20062;-71
2023/12/05 06:32:41;;;;;;;0.75;0.75;;;0.90;99.90;;;;;;6184863;23;20087;-71
2023/12/05 06:35:07;;;;;;;3.10;1.95;;;0.90;99.90;;;;;;6211078;23;20106;-72
2023/12/05 06:37:32;;;;;;;5.90;1.52;;;0.90;99.90;;;;;;6185655;23;20067;-72
2023/12/05 06:39:58;;;;;;;2.92;1.35;;;0.90;99.90;;;;;;6183204;23;20391;-71
2023/12/05 06:42:24;;;;;;;6.53;1.77;;;0.90;99.90;;;;;;6185587;23;20444;-72
2023/12/05 06:44:51;;;;;;;1.33;1.23;;;0.80;99.90;;;;;;6182205;23;20078;-71
2023/12/05 06:47:16;;;;;;;3.47;1.13;;;0.80;99.90;;;;;;6211945;23;20013;-71
2023/12/05 06:49:43;;;;;;;2.88;2.55;;;0.90;99.90;;;;;;6210518;23;20452;-72
2023/12/05 06:52:11;;;;;;;1.15;0.90;;;0.80;99.90;;;;;;6213028;23;20008;-71
2023/12/05 06:54:37;;;;;;;1.23;1.02;;;0.80;99.90;;;;;;6182670;23;20039;-72
2023/12/05 06:57:03;;;;;;;2.03;1.83;;;0.80;99.90;;;;;;6185831;23;20016;-71
2023/12/05 06:59:28;;;;;;;1.52;1.45;;;0.80;99.90;;;;;;6184517;23;20065;-71
2023/12/05 07:01:54;;;;;;;6.25;3.25;;;0.80;99.90;;;;;;6185761;23;20399;-71
2023/12/05 07:04:19;;;;;;;5.78;1.00;;;0.80;99.90;;;;;;6208520;23;20451;-71
2023/12/05 07:06:45;;;;;;;3.28;1.27;;;0.80;99.90;;;;;;6185111;23;20067;-71
2023/12/05 07:09:10;;;;;;;2.97;2.00;;;0.80;99.90;;;;;;6183830;23;20035;-72
2023/12/05 07:11:36;;;;;;;5.68;1.98;;;0.80;99.90;;;;;;6212215;23;20016;-71
2023/12/05 07:14:01;;;;;;;1.27;1.10;;;0.80;99.90;;;;;;6182066;23;20024;-71
2023/12/05 07:16:27;;;;;;;1.73;1.63;;;0.80;99.90;;;;;;6185301;23;20020;-71
2023/12/05 07:18:54;;;;;;;5.90;1.85;;;0.80;99.90;;;;;;6183080;23;20452;-72
2023/12/05 07:21:19;;;;;;;5.28;1.73;;;0.80;99.90;;;;;;6184058;23;20051;-72
2023/12/05 07:23:45;;;;;;;3.25;2.67;;;0.80;99.90;;;;;;6183975;23;20443;-71
2023/12/05 07:26:10;;;;;;;4.07;2.30;;;0.80;99.90;;;;;;6210004;23;20012;-72
2023/12/05 07:28:36;;;;;;;3.05;1.55;;;0.80;99.90;;;;;;6183865;23;20024;-72
2023/12/05 07:31:02;;;;;;;5.43;1.92;;;0.80;99.90;;;;;;6183453;23;20098;-71
2023/12/05 07:33:27;;;;;;;2.03;1.80;;;0.80;99.90;;;;;;6183693;23;20012;-71
2023/12/05 07:35:53;;;;;;;5.00;1.98;;;0.80;99.90;;;;;;6184060;23;20024;-71
2023/12/05 07:38:18;;;;;;;2.50;1.75;;;0.80;99.90;;;;;;6184027;23;20012;-72
2023/12/05 07:40:44;;;;;;;1.98;1.83;;;0.80;99.90;;;;;;6182839;23;20012;-72
2023/12/05 07:43:10;;;;;;;4.95;2.22;;;0.80;99.90;;;;;;6182170;23;20468;-71
2023/12/05 07:45:35;;;;;;;5.57;2.28;;;0.80;99.90;;;;;;6210175;23;20481;-71
2023/12/05 07:48:01;;;;;;;2.88;2.53;;;0.80;99.90;;;;;;6184145;23;20340;-70
2023/12/05 07:50:27;;;;;;;1.35;1.25;;;0.80;99.90;;;;;;6184800;23;20016;-71
2023/12/05 07:52:52;;;;;;;1.13;1.13;;;0.80;99.90;;;;;;6211749;23;20017;-71
2023/12/05 07:55:18;;;;;;;2.78;1.08;;;0.80;99.90;;;;;;6184889;23;20127;-71
2023/12/05 07:57:46;;;;;;;5.60;2.35;;;0.80;99.90;;;;;;6186568;23;20593;-71
2023/12/05 08:00:16;;;;;;;2.40;2.17;;;0.80;99.90;;;;;;6182575;23;20392;-72
2023/12/05 08:02:45;;;;;;;3.42;2.35;;;0.80;99.90;;;;;;6183941;23;20012;-71
2023/12/05 08:05:11;;;;;;;3.58;1.45;;;0.80;99.90;;;;;;6209251;23;20063;-72
2023/12/05 08:07:37;;;;;;;2.53;1.88;;;0.80;99.90;;;;;;6185439;23;20017;-72
2023/12/05 08:10:04;;;;;;;2.17;1.63;;;0.90;99.90;;;;;;6182091;23;20012;-72
2023/12/05 08:12:29;;;;;;;2.33;1.60;;;0.90;99.90;;;;;;6184849;23;20095;-72
2023/12/05 08:14:55;;;;;;;5.82;2.63;;;0.90;99.90;;;;;;6182223;23;20578;-72
2023/12/05 08:17:21;;;;;;;3.92;1.73;;;0.90;99.90;;;;;;6212014;23;20462;-72
2023/12/05 08:19:46;;;;;;;1.35;0.90;;;0.90;99.90;;;;;;6160175;23;20406;-72
2023/12/05 08:22:12;;;;;;;1.60;1.40;;;0.90;99.90;;;;;;6184049;23;20020;-71
2023/12/05 08:24:37;;;;;;;2.55;1.95;;;0.90;99.90;;;;;;6183077;23;20020;-72
2023/12/05 08:27:03;;;;;;;3.83;2.15;;;0.90;99.90;;;;;;6211856;23;20013;-72
2023/12/05 08:29:29;;;;;;;7.88;1.65;;;0.90;99.90;;;;;;6208550;23;20013;-73
2023/12/05 08:31:54;;;;;;;1.95;1.48;;;1.00;99.90;;;;;;6184534;23;20008;-73
2023/12/05 08:34:20;;;;;;;1.35;1.25;;;0.90;99.90;;;;;;6182869;23;20055;-74
2023/12/05 08:36:45;;;;;;;6.00;2.20;;;0.90;99.90;;;;;;6211712;23;20461;-74
2023/12/05 08:39:12;;;;;;;1.55;1.42;;;1.00;99.90;;;;;;6183077;23;20013;-74
2023/12/05 08:41:37;;;;;;;2.45;2.00;;;0.90;99.90;;;;;;6209601;23;20376;-73
2023/12/05 08:44:03;;;;;;;1.85;1.75;;;1.00;99.90;;;;;;6182057;23;20023;-74
2023/12/05 08:46:28;;;;;;;1.50;0.68;;;1.00;99.90;;;;;;6158871;23;20017;-73
2023/12/05 08:48:54;;;;;;;2.45;1.65;;;1.00;99.90;;;;;;6182741;23;20051;-75
2023/12/05 08:51:20;;;;;;;2.58;2.30;;;1.00;99.90;;;;;;6210833;23;20075;-74
2023/12/05 08:53:45;;;;;;;3.90;1.65;;;1.00;99.90;;;;;;6209072;23;20440;-74
2023/12/05 08:56:12;;;;;;;2.17;1.90;;;1.00;99.90;;;;;;6210736;23;20027;-75
2023/12/05 08:58:39;;;;;;;3.40;1.75;;;1.00;99.90;;;;;;6209226;23;20456;-75
2023/12/05 09:01:05;;;;;;;1.67;1.58;;;1.00;99.90;;;;;;6159611;23;20016;-75
2023/12/05 09:03:30;;;;;;;3.00;1.95;;;1.00;99.90;;;;;;6204328;23;20027;-75
2023/12/05 09:05:56;;;;;;;7.05;1.88;;;1.00;99.90;;;;;;6171808;23;20047;-76
2023/12/05 09:08:22;;;;;;;1.85;1.73;;;1.10;99.90;;;;;;6153922;23;20355;-76
2023/12/05 09:10:47;;;;;;;3.75;2.20;;;1.00;99.90;;;;;;6211054;23;20363;-76
2023/12/05 09:13:15;;;;;;;7.70;1.40;;;1.00;99.90;;;;;;6184400;23;20009;-74
2023/12/05 09:15:40;;;;;;;1.50;1.38;;;1.00;99.90;;;;;;6183404;23;20020;-73
2023/12/05 09:18:06;;;;;;;4.35;0.52;;;1.00;99.90;;;;;;6183436;23;20068;-74
2023/12/05 09:20:32;;;;;;;4.50;1.45;;;1.00;99.90;;;;;;6184814;23;20021;-74
2023/12/05 09:22:58;;;;;;;1.90;1.33;;;1.10;99.90;;;;;;6184301;23;20021;-75
2023/12/05 09:25:23;;;;;;;2.50;1.95;;;1.00;99.90;;;;;;6181307;23;20016;-74
2023/12/05 09:27:49;;;;;;;5.75;1.30;;;1.10;99.90;;;;;;6183669;23;20030;-75
2023/12/05 09:30:15;;;;;;;2.92;2.08;;;1.10;99.90;;;;;;6212697;23;20017;-74
2023/12/05 09:32:40;;;;;;;0.20;0.20;;;1.10;99.90;;;;;;6184174;23;20012;-74
2023/12/05 09:35:06;;;;;;;2.08;1.83;;;1.10;99.90;;;;;;6212148;23;20491;-75
2023/12/05 09:37:32;;;;;;;2.33;2.05;;;1.10;99.90;;;;;;6213034;23;20016;-75
2023/12/05 09:39:58;;;;;;;2.30;2.15;;;1.10;99.90;;;;;;6158712;23;20348;-75
2023/12/05 09:42:28;;;;;;;0.65;0.65;;;1.10;99.90;;;;;;6185951;23;20019;-75
2023/12/05 09:44:55;;;;;;;3.88;1.20;;;1.10;99.90;;;;;;6183816;23;20043;-74
2023/12/05 09:47:23;;;;;;;1.98;1.42;;;1.10;99.90;;;;;;6185942;23;20040;-75
2023/12/05 09:49:48;;;;;;;3.30;1.75;;;1.10;99.90;;;;;;6184167;23;20463;-75
2023/12/05 09:52:14;;;;;;;4.13;2.10;;;1.10;99.90;;;;;;6211880;23;20009;-74
2023/12/05 09:54:44;;;;;;;4.45;1.00;;;1.10;99.90;;;;;;6184338;23;20012;-74
2023/12/05 09:57:13;;;;;;;0.77;0.77;;;1.10;99.90;;;;;;6185709;23;20011;-74
2023/12/05 09:59:39;;;;;;;3.53;1.55;;;1.10;99.90;;;;;;6184837;23;20019;-74
2023/12/05 10:02:06;;;;;;;1.25;1.10;;;1.20;99.90;;;;;;6212021;23;20040;-74
2023/12/05 10:04:42;;;;;;;5.30;2.15;;;1.10;99.90;;;;;;6181552;23;20477;-73
2023/12/05 10:07:11;;;;;;;1.52;1.08;;;1.20;99.90;;;;;;6212637;23;20296;-73
2023/12/05 10:09:42;;;;;;;4.30;1.52;;;1.20;99.90;;;;;;6184727;23;20013;-73
2023/12/05 10:12:11;;;;;;;4.18;3.10;;;1.20;99.90;;;;;;6184517;23;20317;-73
2023/12/05 10:14:37;;;;;;;2.17;2.00;;;1.20;99.90;;;;;;6210289;23;20336;-73
2023/12/05 10:17:04;;;;;;;2.40;2.25;;;1.20;99.90;;;;;;6185511;23;20016;-74
2023/12/05 10:19:31;;;;;;;2.33;1.70;;;1.20;99.90;;;;;;6184736;23;20008;-74
2023/12/05 10:21:57;;;;;;;1.75;1.65;;;1.20;99.90;;;;;;6211941;23;20508;-74
2023/12/05 10:24:23;;;;;;;4.40;2.28;;;1.20;99.90;;;;;;6185508;23;20468;-73
2023/12/05 10:26:49;;;;;;;2.28;2.08;;;1.30;99.90;;;;;;6161805;23;20020;-72
2023/12/05 10:29:16;;;;;;;3.03;2.70;;;1.30;99.90;;;;;;6158653;23;20075;-73
2023/12/05 10:31:42;;;;;;;3.70;2.75;;;1.30;99.90;;;;;;6184499;23;20012;-74
2023/12/05 10:34:08;;;;;;;1.83;1.67;;;1.30;99.90;;;;;;6208975;23;20032;-73
2023/12/05 10:36:34;;;;;;;2.00;0.73;;;1.30;99.90;;;;;;6210105;23;20080;-72
2023/12/05 10:39:00;;;;;;;2.65;1.55;;;1.30;99.90;;;;;;6208045;23;20034;-73
2023/12/05 10:41:29;;;;;;;1.52;1.42;;;1.40;99.90;;;;;;6209760;23;20344;-74
2023/12/05 10:43:55;;;;;;;1.52;1.42;;;1.40;99.90;;;;;;6183287;23;20055;-75
2023/12/05 10:46:23;;;;;;;8.07;2.90;;;1.40;99.90;;;;;;6172585;23;20008;-72
2023/12/05 10:48:49;;;;;;;1.13;0.88;;;1.40;99.90;;;;;;6181725;23;20012;-73
2023/12/05 10:51:15;;;;;;;6.13;1.85;;;1.40;99.90;;;;;;6209838;23;20020;-72
2023/12/05 10:53:41;;;;;;;0.88;0.88;;;1.40;99.90;;;;;;6172857;23;20751;-73
2023/12/05 10:56:13;;;;;;;1.85;1.38;;;1.40;99.90;;;;;;6180404;23;20016;-73
2023/12/05 10:58:43;;;;;;;3.42;1.85;;;1.40;99.90;;;;;;6209451;23;20086;-72
2023/12/05 11:01:13;;;;;;;1.50;1.42;;;1.40;99.90;;;;;;6183664;23;20428;-73
2023/12/05 11:03:40;;;;;;;0.43;0.43;;;1.40;99.90;;;;;;6180866;23;20066;-72
2023/12/05 11:06:07;;;;;;;1.10;0.95;;;1.40;99.90;;;;;;6182546;23;20364;-74
2023/12/05 11:08:33;;;;;;;4.50;2.17;;;1.40;99.90;;;;;;6182706;23;20448;-73
2023/12/05 11:11:02;;;;;;;2.20;1.55;;;1.40;99.90;;;;;;6183927;23;20074;-72
2023/12/05 11:13:30;;;;;;;5.07;1.98;;;1.40;99.90;;;;;;6182955;23;20013;-72
2023/12/05 11:15:59;;;;;;;1.20;0.95;;;1.40;99.90;;;;;;6182487;23;20343;-72
2023/12/05 11:18:36;;;;;;;2.95;1.20;;;1.40;99.90;;;;;;6182897;23;20075;-70
2023/12/05 11:21:20;;;;;;;2.90;2.08;;;1.40;99.90;;;;;;6210774;23;20013;-71
2023/12/05 11:23:58;;;;;;;1.13;1.13;;;1.40;99.90;;;;;;6208910;23;20017;-74
2023/12/05 11:26:49;;;;;;;5.93;2.25;;;1.40;99.90;;;;;;6181179;23;20351;-72
2023/12/05 11:29:33;;;;;;;6.20;3.47;;;1.40;99.90;;;;;;6185545;23;20063;-71
2023/12/05 11:32:23;;;;;;;5.57;1.50;;;1.30;99.90;;;;;;6184512;23;20012;-75
2023/12/05 11:35:07;;;;;;;2.33;1.55;;;1.40;99.90;;;;;;6186021;23;20439;-71
2023/12/05 11:37:53;;;;;;;1.63;1.52;;;1.40;99.90;;;;;;6188343;23;20024;-72
2023/12/05 11:40:20;;;;;;;3.58;2.72;;;1.40;99.90;;;;;;6188447;23;20017;-72
2023/12/05 11:43:07;;;;;;;2.22;2.13;;;1.40;99.90;;;;;;6216258;23;20016;-72
2023/12/05 11:45:36;;;;;;;3.45;2.33;;;1.40;99.90;;;;;;6214072;23;20024;-73
2023/12/05 11:48:01;;;;;;;5.28;2.67;;;1.40;99.90;;;;;;6189062;23;20012;-72
2023/12/05 11:50:42;;;;;;;3.28;2.47;;;1.40;99.90;;;;;;6188844;23;20023;-73
2023/12/05 11:53:09;;;;;;;3.13;1.92;;;1.40;99.90;;;;;;6214488;23;20244;-73
2023/12/05 11:55:35;;;;;;;3.65;2.75;;;1.30;99.90;;;;;;6185508;23;20043;-74
2023/12/05 11:58:01;;;;;;;4.47;1.42;;;1.30;99.90;;;;;;6213228;23;20340;-73
2023/12/05 12:00:27;;;;;;;7.68;2.70;;;1.40;99.90;;;;;;6184964;23;20020;-74
2023/12/05 12:02:59;;;;;;;4.95;3.38;;;1.40;99.90;;;;;;6188437;23;20012;-72
2023/12/05 12:05:25;;;;;;;1.67;1.27;;;1.30;99.90;;;;;;6189416;23;20336;-72
2023/12/05 12:07:58;;;;;;;9.65;1.88;;;1.30;99.90;;;;;;6188678;23;20012;-72
2023/12/05 12:10:37;;;;;;;2.08;1.90;;;1.30;99.90;;;;;;6214975;23;20609;-72
2023/12/05 12:13:02;;;;;;;5.22;2.40;;;1.30;99.90;;;;;;6189217;23;20111;-73
2023/12/05 12:16:20;;;;;;;5.25;2.40;;;1.30;99.90;;;;;;6189515;23;20459;-73
2023/12/05 12:19:03;;;;;;;2.47;2.38;;;1.20;99.90;;;;;;6190070;23;20016;-72
2023/12/05 12:24:50;;;;;;;2.00;1.70;;;1.20;99.90;;;;;;6213692;23;19954;-72
2023/12/05 12:27:15;;;;;;;3.17;2.00;;;1.20;99.90;;;;;;6188514;23;20013;-72
2023/12/05 12:30:34;;;;;;;3.30;1.95;;;1.20;99.90;;;;;;6188159;23;20380;-73
2023/12/05 12:33:09;;;;;;;4.07;2.10;;;1.20;99.90;;;;;;6188460;23;20059;-74
2023/12/05 12:35:35;;;;;;;9.55;2.67;;;1.20;99.90;;;;;;6188880;23;20016;-73
2023/12/05 12:38:16;;;;;;;3.10;2.83;;;1.20;99.90;;;;;;6189994;23;20451;-73
2023/12/05 12:40:42;;;;;;;2.38;1.98;;;1.20;99.90;;;;;;6185836;23;20020;-75
2023/12/05 12:43:15;;;;;;;8.63;6.18;;;1.10;99.90;;;;;;6188685;23;20017;-73
2023/12/05 12:45:41;;;;;;;4.75;2.50;;;1.20;99.90;;;;;;6187159;23;20016;-73
2023/12/05 12:48:06;;;;;;;2.33;2.08;;;1.20;99.90;;;;;;6213248;23;20506;-75
2023/12/05 12:50:33;;;;;;;7.82;1.88;;;1.10;99.90;;;;;;6215028;23;20351;-73
2023/12/05 12:53:01;;;;;;;4.35;2.20;;;1.10;99.90;;;;;;6186418;23;20008;-73
2023/12/05 12:55:27;;;;;;;6.88;4.22;;;1.10;99.90;;;;;;6185726;23;20091;-73
2023/12/05 12:57:53;;;;;;;5.90;2.35;;;1.10;99.90;;;;;;6214177;23;20048;-74
2023/12/05 13:00:20;;;;;;;3.25;2.95;;;1.10;99.90;;;;;;6186148;23;20095;-75
2023/12/05 13:02:51;;;;;;;5.85;2.90;;;1.10;99.90;;;;;;6212039;23;20012;-74